Terminal Aerodrome Forecast
Issued by NWS

Home | Current Version | Previous Version | Text Only | Print | Product List | Glossary On
Versions: 1 2 3 4 5 6 7 8 9 10 11 12 13 14 15 16 17 18 19 20 21 22 23 24 25 26 27 28 29 30 31
000
FTUS44 KEWX 261803 RRA
TAFSSF
TAF
KSSF 261803Z 2618/2718 15008KT P6SM SCT025 BKN250
     FM261900 16010KT P6SM BKN040
     FM270200 14008KT P6SM BKN009 OVC020
     FM270800 16008KT 6SM -SHRA OVC008
      TEMPO 2708/2712 VRB20G30KT 2SM TSRA OVC010CB
     FM271200 31007KT P6SM BKN015 BKN080=

USA.gov is the U.S. government's official web portal to all federal, state and local government web resources and services.